createdAt,value
2023-11-06T00:05:07.806Z,49.9
2023-11-06T00:10:58.496Z,49.9
2023-11-06T00:17:02.222Z,49.8
2023-11-06T00:22:54.223Z,49.8
2023-11-06T00:28:44.570Z,49.7
2023-11-06T00:34:37.235Z,49.7
2023-11-06T00:40:31.989Z,49.6
2023-11-06T00:46:23.453Z,49.6
2023-11-06T00:52:15.717Z,49.5
2023-11-06T00:58:07.770Z,49.5
2023-11-06T01:03:27.904Z,49.4
2023-11-06T01:09:05.450Z,49.4
2023-11-06T01:14:41.855Z,49.4
2023-11-06T01:20:02.382Z,49.3
2023-11-06T01:26:04.431Z,49.3
2023-11-06T01:31:40.378Z,49.3
2023-11-06T01:37:16.197Z,49.1
2023-11-06T01:43:09.098Z,49.5
2023-11-06T01:49:01.163Z,50.6
2023-11-06T01:54:51.869Z,51.8
2023-11-06T02:00:28.391Z,53.1
2023-11-06T02:06:21.299Z,54.4
2023-11-06T02:11:57.293Z,55.7
2023-11-06T02:17:50.396Z,56.8
2023-11-06T02:23:52.951Z,58.2
2023-11-06T02:29:44.684Z,59.6
2023-11-06T02:35:37.763Z,60.1
2023-11-06T02:41:30.665Z,60.1
2023-11-06T02:47:22.354Z,60.2
2023-11-06T02:53:16.699Z,60.1
2023-11-06T02:59:08.344Z,60.1
2023-11-06T03:05:00.677Z,60.1
2023-11-06T03:10:53.537Z,60.1
2023-11-06T03:16:45.206Z,60.1
2023-11-06T03:22:37.394Z,60
2023-11-06T03:28:29.148Z,59.9
2023-11-06T03:34:21.787Z,59.9
2023-11-06T03:40:13.520Z,59.9
2023-11-06T03:46:10.339Z,59.8
2023-11-06T03:52:02.860Z,59.8
2023-11-06T03:57:53.996Z,59.8
2023-11-06T04:03:31.012Z,59.8
2023-11-06T04:09:26.061Z,59.7
2023-11-06T04:15:18.504Z,59.6
2023-11-06T04:21:11.855Z,59.6
2023-11-06T04:27:04.191Z,59.6
2023-11-06T04:32:39.878Z,59.5
2023-11-06T04:38:34.062Z,59.5
2023-11-06T04:44:26.557Z,59.4
2023-11-06T04:50:18.293Z,59.4
2023-11-06T04:56:10.221Z,59.4
2023-11-06T05:02:05.141Z,59.3
2023-11-06T05:07:42.817Z,59.3
2023-11-06T05:13:34.822Z,59.2
2023-11-06T05:19:26.396Z,59.2
2023-11-06T05:25:07.057Z,59.1
2023-11-06T05:30:59.360Z,59.1
2023-11-06T05:36:21.269Z,59.1
2023-11-06T05:42:12.967Z,59
2023-11-06T05:47:49.995Z,59
2023-11-06T05:53:43.594Z,58.9
2023-11-06T05:59:23.325Z,58.9
2023-11-06T06:05:01.549Z,58.8
2023-11-06T06:10:40.477Z,58.8
2023-11-06T06:16:15.927Z,58.8
2023-11-06T06:21:54.099Z,58.8
2023-11-06T06:27:30.741Z,58.7
2023-11-06T06:33:08.687Z,58.7
2023-11-06T06:38:30.764Z,58.6
2023-11-06T06:49:27.788Z,58.5
2023-11-06T06:55:05.000Z,58.5
2023-11-06T07:00:41.794Z,58.4
2023-11-06T07:06:19.167Z,58.4
2023-11-06T07:11:56.611Z,58.4
2023-11-06T07:17:33.101Z,58.3
2023-11-06T07:23:10.131Z,58.3
2023-11-06T07:28:32.285Z,58.3
2023-11-06T07:34:09.211Z,58.2
2023-11-06T07:40:01.834Z,58.2
2023-11-06T07:45:38.793Z,58.3
2023-11-06T07:56:52.705Z,58.8
2023-11-06T08:02:43.688Z,59.2
2023-11-06T08:08:36.140Z,59.6
2023-11-06T08:14:13.939Z,60.1
2023-11-06T08:19:37.523Z,60.6
2023-11-06T08:25:31.002Z,61.1
2023-11-06T08:31:23.575Z,61.4
2023-11-06T08:37:16.951Z,61.9
2023-11-06T08:42:54.081Z,62.4
2023-11-06T08:48:46.430Z,62.9
2023-11-06T08:54:28.988Z,63.4
2023-11-06T09:00:21.570Z,63.9
2023-11-06T09:06:14.393Z,64.4
2023-11-06T09:11:52.699Z,64.9
2023-11-06T09:17:44.871Z,65.4
2023-11-06T09:23:37.700Z,66
2023-11-06T09:29:32.560Z,66.5
2023-11-06T09:35:26.218Z,66.9
2023-11-06T09:41:18.664Z,67.4
2023-11-06T09:46:57.566Z,67.9
2023-11-06T09:52:52.909Z,68.4
2023-11-06T09:58:16.694Z,68.9
2023-11-06T10:04:09.855Z,69.4
2023-11-06T10:10:03.505Z,70
2023-11-06T10:15:44.463Z,70.4
2023-11-06T10:21:38.112Z,70.7
2023-11-06T10:27:17.474Z,70.9
2023-11-06T10:33:11.290Z,71.2
2023-11-06T10:38:52.634Z,71.4
2023-11-06T10:45:02.970Z,71.9
2023-11-06T10:50:57.461Z,72.4
2023-11-06T10:57:01.701Z,72.9
2023-11-06T11:02:54.784Z,73
2023-11-06T11:08:48.617Z,73.3
2023-11-06T11:14:44.640Z,73.6
2023-11-06T11:20:41.616Z,74.1
2023-11-06T11:26:34.444Z,74.4
2023-11-06T11:32:27.432Z,74.6
2023-11-06T11:38:26.537Z,74.7
2023-11-06T11:44:19.322Z,74.9
2023-11-06T11:50:11.926Z,75.1
2023-11-06T11:55:49.297Z,75.1
2023-11-06T12:01:41.127Z,75.2
2023-11-06T12:07:36.544Z,75.2
2023-11-06T12:13:32.972Z,75.1
2023-11-06T12:19:32.994Z,75.1
2023-11-06T12:25:26.263Z,75.1
2023-11-06T12:31:03.577Z,75.1
2023-11-06T12:36:59.187Z,75.1
2023-11-06T12:42:51.395Z,75.1
2023-11-06T12:48:58.257Z,75.1
2023-11-06T12:54:51.568Z,75
2023-11-06T13:00:45.350Z,74.9
2023-11-06T13:06:38.984Z,74.9
2023-11-06T13:12:24.806Z,74.9
2023-11-06T13:18:01.919Z,74.8
2023-11-06T13:23:54.732Z,74.8
2023-11-06T13:29:48.270Z,74.7
2023-11-06T13:35:40.648Z,74.6
2023-11-06T13:41:33.790Z,74.6
2023-11-06T13:47:24.446Z,74.5
2023-11-06T13:53:17.996Z,74.4
2023-11-06T13:59:27.954Z,74.4
2023-11-06T14:05:04.188Z,74.3
2023-11-06T14:10:56.314Z,74.3
2023-11-06T14:16:32.495Z,74.3
2023-11-06T14:22:24.256Z,74.2
2023-11-06T14:28:16.076Z,74.1
2023-11-06T14:34:08.866Z,74.1
2023-11-06T14:40:00.590Z,74
2023-11-06T14:45:52.998Z,73.9
2023-11-06T14:51:56.659Z,73.9
2023-11-06T14:58:03.913Z,73.8
2023-11-06T15:03:57.061Z,73.8
2023-11-06T15:09:50.165Z,73.7
2023-11-06T15:15:42.166Z,73.6
2023-11-06T15:21:35.604Z,73.6
2023-11-06T15:27:32.010Z,73.5
2023-11-06T15:33:25.163Z,73.4
2023-11-06T15:39:18.784Z,73.3
2023-11-06T15:45:14.749Z,73.3
2023-11-06T15:51:17.293Z,73.2
2023-11-06T15:57:10.321Z,73.1
2023-11-06T16:02:32.322Z,73
2023-11-06T16:08:27.044Z,73
2023-11-06T16:14:19.419Z,72.9
2023-11-06T16:20:12.436Z,72.8
2023-11-06T16:26:07.001Z,72.8
2023-11-06T16:31:44.317Z,72.8
2023-11-06T16:37:50.798Z,72.6
2023-11-06T16:43:42.821Z,72.6
2023-11-06T16:49:36.370Z,72.5
2023-11-06T16:55:28.016Z,72.4
2023-11-06T17:01:20.159Z,72.4
2023-11-06T17:07:13.924Z,72.3
2023-11-06T17:13:10.070Z,72.2
2023-11-06T17:19:06.376Z,72.2
2023-11-06T17:25:03.712Z,72.1
2023-11-06T17:30:56.100Z,72
2023-11-06T17:36:49.261Z,71.9
2023-11-06T17:42:44.161Z,71.8
2023-11-06T17:48:39.904Z,71.8
2023-11-06T17:54:31.635Z,71.7
2023-11-06T18:00:23.939Z,71.6
2023-11-06T18:06:19.972Z,71.6
2023-11-06T18:11:55.399Z,71.5
2023-11-06T18:17:47.281Z,71.4
2023-11-06T18:23:40.908Z,71.4
2023-11-06T18:29:31.686Z,71.3
2023-11-06T18:35:24.484Z,71.3
2023-11-06T18:41:01.423Z,71.1
2023-11-06T18:46:37.435Z,71.1
2023-11-06T18:52:30.425Z,71
2023-11-06T18:58:23.171Z,70.9
2023-11-06T19:04:15.242Z,70.9
2023-11-06T19:10:15.033Z,70.8
2023-11-06T19:16:07.452Z,70.8
2023-11-06T19:21:59.865Z,70.6
2023-11-06T19:27:55.253Z,70.6
2023-11-06T19:33:48.346Z,70.6
2023-11-06T19:39:40.018Z,70.4
2023-11-06T19:45:32.495Z,70.4
2023-11-06T19:51:28.664Z,70.3
2023-11-06T19:57:20.582Z,70.2
2023-11-06T20:03:48.402Z,69.7
2023-11-06T20:09:41.296Z,68.3
2023-11-06T20:15:32.847Z,67.3
2023-11-06T20:21:26.364Z,66.9
2023-11-06T20:27:18.730Z,66.8
2023-11-06T20:32:57.433Z,66.7
2023-11-06T20:38:20.043Z,66.6
2023-11-06T20:43:58.943Z,66.2
2023-11-06T20:49:51.412Z,65.9
2023-11-06T20:55:43.508Z,65.9
2023-11-06T21:01:35.827Z,65.8
2023-11-06T21:07:13.395Z,65.7
2023-11-06T21:13:05.864Z,65.6
2023-11-06T21:18:58.225Z,65.4
2023-11-06T21:24:50.015Z,65.4
2023-11-06T21:30:42.235Z,65.3
2023-11-06T21:36:39.065Z,65.2
2023-11-06T21:42:00.458Z,65.1
2023-11-06T21:47:53.119Z,65.1
2023-11-06T21:53:45.534Z,65
2023-11-06T21:59:52.381Z,64.9
2023-11-06T22:05:53.009Z,64.8
2023-11-06T22:11:37.670Z,64.8
2023-11-06T22:16:59.417Z,64.7
2023-11-06T22:22:08.814Z,64.6
2023-11-06T22:28:00.072Z,64.6
2023-11-06T22:33:52.641Z,64.5
2023-11-06T22:39:31.178Z,64.4
2023-11-06T22:45:23.516Z,64.4
2023-11-06T22:51:16.315Z,64.3
2023-11-06T22:56:53.308Z,64.2
2023-11-06T23:02:29.992Z,64.1
2023-11-06T23:08:07.015Z,64.1
2023-11-06T23:13:59.471Z,64
2023-11-06T23:19:52.481Z,63.9
2023-11-06T23:25:53.736Z,63.8
2023-11-06T23:31:40.438Z,63.8
2023-11-06T23:37:33.517Z,63.7
2023-11-06T23:43:36.295Z,63.6
2023-11-06T23:49:29.861Z,63.6
2023-11-06T23:55:21.818Z,63.5
